createdAt,value
2019-04-30T00:01:18.824Z,0.00
2019-04-30T00:02:16.286Z,0.00
2019-04-30T00:04:20.445Z,0.00
2019-04-30T00:05:20.688Z,0.00
2019-04-30T00:07:24.921Z,0.00
2019-04-30T00:08:25.840Z,0.00
2019-04-30T00:10:36.027Z,0.00
2019-04-30T00:11:29.504Z,0.00
2019-04-30T00:13:35.726Z,0.00
2019-04-30T00:14:40.087Z,0.00
2019-04-30T00:16:39.872Z,0.00
2019-04-30T00:17:38.317Z,0.00
2019-04-30T00:19:42.476Z,0.00
2019-04-30T00:20:44.750Z,0.00
2019-04-30T00:22:50.331Z,0.00
2019-04-30T00:23:47.141Z,0.00
2019-04-30T00:25:51.307Z,0.00
2019-04-30T00:26:52.512Z,0.00
2019-04-30T00:28:55.694Z,0.00
2019-04-30T00:29:55.943Z,0.00
2019-04-30T00:31:49.041Z,0.00
2019-04-30T00:32:49.264Z,0.00
2019-04-30T00:34:53.421Z,0.00
2019-04-30T00:35:55.129Z,0.00
2019-04-30T00:38:00.216Z,0.00
2019-04-30T00:38:58.058Z,0.00
2019-04-30T00:41:06.822Z,0.00
2019-04-30T00:42:02.449Z,0.00
2019-04-30T00:44:07.633Z,0.00
2019-04-30T00:45:09.910Z,0.00
2019-04-30T00:47:12.045Z,0.00
2019-04-30T00:48:12.281Z,0.00
2019-04-30T00:50:16.438Z,0.00
2019-04-30T00:51:21.219Z,0.00
2019-04-30T00:53:20.844Z,0.00
2019-04-30T00:54:22.548Z,0.00
2019-04-30T00:56:28.188Z,0.00
2019-04-30T00:57:26.526Z,0.00
2019-04-30T00:59:30.658Z,0.00
2019-04-30T01:00:30.891Z,0.00
2019-04-30T01:02:35.755Z,0.00
2019-04-30T01:03:35.324Z,0.00
2019-04-30T01:05:43.547Z,0.00
2019-04-30T01:06:39.690Z,0.00
2019-04-30T01:08:46.107Z,0.00
2019-04-30T01:09:49.570Z,0.00
2019-04-30T01:11:39.762Z,0.00
2019-04-30T01:12:44.228Z,0.00
2019-04-30T01:14:41.596Z,0.00
2019-04-30T01:15:43.927Z,0.00
2019-04-30T01:17:50.929Z,0.00
2019-04-30T01:18:46.231Z,0.00
2019-04-30T01:20:50.390Z,0.00
2019-04-30T01:21:50.971Z,0.00
2019-04-30T01:23:54.900Z,0.00
2019-04-30T01:24:55.046Z,0.00
2019-04-30T01:27:02.108Z,0.00
2019-04-30T01:27:59.450Z,0.00
2019-04-30T01:30:03.606Z,0.00
2019-04-30T01:31:03.843Z,0.00
2019-04-30T01:33:09.154Z,0.00
2019-04-30T01:34:12.350Z,0.00
2019-04-30T01:36:13.446Z,0.00
2019-04-30T01:37:12.644Z,0.00
2019-04-30T01:39:16.817Z,0.00
2019-04-30T01:40:18.835Z,0.00
2019-04-30T01:42:21.227Z,0.00
2019-04-30T01:43:30.585Z,0.00
2019-04-30T01:45:28.201Z,0.00
2019-04-30T01:46:25.871Z,0.00
2019-04-30T01:48:30.048Z,0.00
2019-04-30T01:49:41.733Z,0.00
2019-04-30T01:51:23.355Z,0.00
2019-04-30T01:52:23.613Z,0.00
2019-04-30T01:54:29.165Z,0.00
2019-04-30T01:55:29.429Z,0.00
2019-04-30T01:57:32.170Z,0.00
2019-04-30T01:58:33.459Z,0.00
2019-04-30T02:00:36.575Z,0.00
2019-04-30T02:01:38.913Z,0.00
2019-04-30T02:03:40.990Z,0.00
2019-04-30T02:04:41.237Z,0.00
2019-04-30T02:06:45.393Z,0.00
2019-04-30T02:07:46.053Z,0.00
2019-04-30T02:09:49.777Z,0.00
2019-04-30T02:10:51.381Z,0.00
2019-04-30T02:12:54.374Z,0.00
2019-04-30T02:13:54.380Z,0.00
2019-04-30T02:15:59.230Z,0.00
2019-04-30T02:16:59.426Z,0.00
2019-04-30T02:19:02.951Z,0.00
2019-04-30T02:20:03.188Z,0.00
2019-04-30T02:21:56.263Z,0.00
2019-04-30T02:22:58.447Z,0.00
2019-04-30T02:25:00.693Z,0.00
2019-04-30T02:26:00.905Z,0.00
2019-04-30T02:28:05.054Z,0.00
2019-04-30T02:29:05.295Z,0.00
2019-04-30T02:31:09.489Z,0.00
2019-04-30T02:32:10.261Z,0.00
2019-04-30T02:34:13.906Z,0.00
2019-04-30T02:35:14.127Z,0.00
2019-04-30T02:37:21.059Z,0.00
2019-04-30T02:38:20.341Z,0.00
2019-04-30T02:40:23.704Z,0.00
2019-04-30T02:41:23.940Z,0.00
2019-04-30T02:43:30.043Z,0.00
2019-04-30T02:44:29.317Z,0.00
2019-04-30T02:46:33.534Z,0.00
2019-04-30T02:47:33.768Z,0.00
2019-04-30T02:49:39.790Z,0.00
2019-04-30T02:50:39.277Z,0.00
2019-04-30T02:52:42.309Z,0.00
2019-04-30T02:53:42.543Z,0.00
2019-04-30T02:55:46.720Z,0.00
2019-04-30T02:56:46.992Z,0.00
2019-04-30T02:58:51.125Z,0.00
2019-04-30T02:59:51.360Z,0.00
2019-04-30T03:01:44.506Z,0.00
2019-04-30T03:02:44.711Z,0.00
2019-04-30T03:04:50.259Z,0.00
2019-04-30T03:05:49.724Z,0.00
2019-04-30T03:07:53.670Z,0.00
2019-04-30T03:08:53.479Z,0.00
2019-04-30T03:10:59.903Z,0.00
2019-04-30T03:12:00.139Z,0.00
2019-04-30T03:14:02.054Z,0.00
2019-04-30T03:15:02.332Z,0.00
2019-04-30T03:17:06.444Z,0.00
2019-04-30T03:18:06.676Z,0.00
2019-04-30T03:20:20.222Z,0.00
2019-04-30T03:21:11.079Z,0.00
2019-04-30T03:23:15.244Z,4.00
2019-04-30T03:24:15.469Z,4.00
2019-04-30T03:26:20.101Z,0.00
2019-04-30T03:27:20.642Z,4.00
2019-04-30T03:29:24.246Z,4.00
2019-04-30T03:30:24.276Z,8.00
2019-04-30T03:32:31.610Z,8.00
2019-04-30T03:33:32.530Z,12.00
2019-04-30T03:35:32.956Z,16.00
2019-04-30T03:36:33.085Z,16.00
2019-04-30T03:38:39.672Z,28.00
2019-04-30T03:39:39.858Z,32.00
2019-04-30T03:41:33.442Z,40.00
2019-04-30T03:42:30.820Z,48.00
2019-04-30T03:44:34.984Z,64.00
2019-04-30T03:45:35.221Z,76.00
2019-04-30T03:47:42.849Z,100.00
2019-04-30T03:48:39.739Z,112.00
2019-04-30T03:50:53.470Z,148.00
2019-04-30T03:51:45.041Z,168.00
2019-04-30T03:53:50.139Z,208.00
2019-04-30T03:54:49.642Z,232.00
2019-04-30T03:56:53.608Z,284.00
2019-04-30T03:57:53.846Z,316.00
2019-04-30T03:59:59.422Z,384.00
2019-04-30T04:01:00.357Z,416.00
2019-04-30T04:03:02.414Z,496.00
2019-04-30T04:04:02.678Z,544.00
2019-04-30T04:06:09.257Z,636.00
2019-04-30T04:07:07.092Z,684.00
2019-04-30T04:09:11.239Z,792.00
2019-04-30T04:10:11.506Z,844.00
2019-04-30T04:12:04.579Z,952.00
2019-04-30T04:13:04.815Z,1008.00
2019-04-30T04:15:10.397Z,1132.00
2019-04-30T04:16:09.771Z,1192.00
2019-04-30T04:18:13.365Z,1332.00
2019-04-30T04:19:13.591Z,1392.00
2019-04-30T04:21:20.679Z,1536.00
2019-04-30T04:22:20.673Z,1604.00
2019-04-30T04:24:23.163Z,1760.00
2019-04-30T04:25:23.391Z,1836.00
2019-04-30T04:27:30.187Z,2008.00
2019-04-30T04:28:29.822Z,2092.00
2019-04-30T04:30:32.982Z,2256.00
2019-04-30T04:31:33.214Z,2328.00
2019-04-30T04:33:39.551Z,2480.00
2019-04-30T04:34:39.904Z,2564.00
2019-04-30T04:36:43.311Z,2708.00
2019-04-30T04:37:42.011Z,2780.00
2019-04-30T04:39:46.146Z,2936.00
2019-04-30T04:40:46.377Z,3016.00
2019-04-30T04:42:51.560Z,3184.00
2019-04-30T04:43:51.856Z,3264.00
2019-04-30T04:45:59.304Z,3416.00
2019-04-30T04:47:00.012Z,3496.00
2019-04-30T04:49:01.368Z,3648.00
2019-04-30T04:50:01.610Z,3712.00
2019-04-30T04:51:54.711Z,3840.00
2019-04-30T04:52:54.936Z,3916.00
2019-04-30T04:55:00.320Z,4076.00
2019-04-30T04:55:59.912Z,4136.00
2019-04-30T04:58:03.517Z,4284.00
2019-04-30T04:59:03.749Z,4352.00
2019-04-30T05:01:11.691Z,4468.00
2019-04-30T05:02:09.887Z,4544.00
2019-04-30T05:04:13.322Z,4628.00
2019-04-30T05:05:13.557Z,4680.00
2019-04-30T05:07:19.575Z,4900.00
2019-04-30T05:08:18.561Z,4916.00
2019-04-30T05:10:23.302Z,5020.00
2019-04-30T05:11:23.536Z,5076.00
2019-04-30T05:13:29.051Z,5188.00
2019-04-30T05:14:28.851Z,5240.00
2019-04-30T05:16:32.599Z,5324.00
2019-04-30T05:17:32.834Z,5376.00
2019-04-30T05:19:38.544Z,5464.00
2019-04-30T05:20:39.881Z,5504.00
2019-04-30T05:22:41.923Z,5588.00
2019-04-30T05:23:42.765Z,5640.00
2019-04-30T05:25:46.300Z,5700.00
2019-04-30T05:26:48.589Z,5748.00
2019-04-30T05:28:52.810Z,5844.00
2019-04-30T05:29:50.956Z,5880.00
2019-04-30T05:31:44.020Z,5964.00
2019-04-30T05:32:44.259Z,6036.00
2019-04-30T05:34:49.695Z,6096.00
2019-04-30T05:35:49.585Z,6120.00
2019-04-30T05:37:52.839Z,6168.00
2019-04-30T05:38:53.078Z,6272.00
2019-04-30T05:40:57.229Z,6336.00
2019-04-30T05:41:58.939Z,6448.00
2019-04-30T05:44:01.642Z,6544.00
2019-04-30T05:45:01.891Z,6636.00
2019-04-30T05:47:07.064Z,6708.00
2019-04-30T05:48:08.863Z,6696.00
2019-04-30T05:50:11.450Z,6864.00
2019-04-30T05:51:11.689Z,6768.00
2019-04-30T05:53:15.875Z,6928.00
2019-04-30T05:54:16.108Z,6920.00
2019-04-30T05:56:21.270Z,6956.00
2019-04-30T05:57:21.585Z,6976.00
2019-04-30T05:59:25.757Z,7120.00
2019-04-30T06:00:25.994Z,7160.00
2019-04-30T06:02:33.759Z,7240.00
2019-04-30T06:03:33.205Z,7296.00
2019-04-30T06:05:34.558Z,7248.00
2019-04-30T06:06:34.794Z,7324.00
2019-04-30T06:08:39.317Z,7284.00
2019-04-30T06:09:39.207Z,7392.00
2019-04-30T06:11:32.318Z,7336.00
2019-04-30T06:12:32.519Z,7404.00
2019-04-30T06:14:46.667Z,7448.00
2019-04-30T06:15:38.974Z,7388.00
2019-04-30T06:17:41.141Z,7484.00
2019-04-30T06:18:42.340Z,7504.00
2019-04-30T06:20:45.536Z,7536.00
2019-04-30T06:21:45.781Z,7516.00
2019-04-30T06:23:49.950Z,7596.00
2019-04-30T06:24:50.190Z,7576.00
2019-04-30T06:26:55.338Z,7620.00
2019-04-30T06:27:55.577Z,7628.00
2019-04-30T06:29:59.755Z,7696.00
2019-04-30T06:30:59.990Z,7752.00
2019-04-30T06:33:04.162Z,7660.00
2019-04-30T06:34:04.402Z,7696.00
2019-04-30T06:36:10.978Z,7804.00
2019-04-30T06:37:09.634Z,7796.00
2019-04-30T06:39:12.972Z,7852.00
2019-04-30T06:40:13.216Z,7972.00
2019-04-30T06:42:10.184Z,7952.00
2019-04-30T06:43:06.531Z,8044.00
2019-04-30T06:45:10.733Z,8956.00
2019-04-30T06:46:10.984Z,10732.00
2019-04-30T06:48:15.156Z,13808.00
2019-04-30T06:49:15.394Z,13960.00
2019-04-30T06:51:19.552Z,14980.00
2019-04-30T06:52:23.039Z,15144.00
2019-04-30T06:54:23.961Z,17056.00
2019-04-30T06:55:24.199Z,16296.00
2019-04-30T06:57:29.515Z,14376.00
2019-04-30T06:58:29.193Z,15264.00
2019-04-30T07:00:35.533Z,15168.00
2019-04-30T07:01:33.020Z,15040.00
2019-04-30T07:03:38.781Z,18048.00
2019-04-30T07:04:37.438Z,19392.00
2019-04-30T07:06:45.109Z,17248.00
2019-04-30T07:07:41.873Z,16288.00
2019-04-30T07:09:53.247Z,18368.00
2019-04-30T07:10:55.012Z,18336.00
2019-04-30T07:12:50.432Z,18144.00
2019-04-30T07:13:52.303Z,18688.00
2019-04-30T07:15:54.861Z,21248.00
2019-04-30T07:16:55.090Z,21888.00
2019-04-30T07:18:59.276Z,21408.00
2019-04-30T07:19:59.799Z,22720.00
2019-04-30T07:21:52.608Z,29536.00
2019-04-30T07:23:00.197Z,33408.00
2019-04-30T07:24:57.039Z,43584.00
2019-04-30T07:25:58.991Z,45248.00
2019-04-30T07:28:01.457Z,28448.00
2019-04-30T07:29:02.537Z,23136.00
2019-04-30T07:31:13.169Z,18496.00
2019-04-30T07:32:06.132Z,18112.00
2019-04-30T07:34:11.348Z,16960.00
2019-04-30T07:35:11.587Z,16640.00
2019-04-30T07:37:21.088Z,16196.00
2019-04-30T07:38:15.996Z,16428.00
2019-04-30T07:40:20.187Z,17032.00
2019-04-30T07:41:20.432Z,18112.00
2019-04-30T07:43:24.598Z,31456.00
2019-04-30T07:44:33.835Z,34336.00
2019-04-30T07:46:30.052Z,34048.00
2019-04-30T07:47:29.688Z,35136.00
2019-04-30T07:49:46.999Z,35776.00
2019-04-30T07:50:34.384Z,33696.00
2019-04-30T07:52:57.651Z,34688.00
2019-04-30T07:53:40.384Z,35488.00
2019-04-30T07:55:43.328Z,41152.00
2019-04-30T07:56:43.592Z,43776.00
2019-04-30T07:58:50.254Z,42048.00
2019-04-30T07:59:49.863Z,41856.00
2019-04-30T08:02:00.508Z,44736.00
2019-04-30T08:02:43.614Z,44736.00
2019-04-30T08:04:45.560Z,46912.00
2019-04-30T08:05:45.821Z,47360.00
2019-04-30T08:07:50.105Z,49184.00
2019-04-30T08:08:51.653Z,48672.00
2019-04-30T08:10:54.415Z,50176.00
2019-04-30T08:11:54.668Z,51104.00
2019-04-30T08:13:59.344Z,51744.00
2019-04-30T08:14:59.550Z,53216.00
2019-04-30T08:17:03.285Z,57376.00
2019-04-30T08:18:05.951Z,55776.00
2019-04-30T08:20:08.757Z,57824.00
2019-04-30T08:21:09.512Z,58144.00
2019-04-30T08:23:20.126Z,60448.00
2019-04-30T08:24:12.400Z,58752.00
2019-04-30T08:26:18.591Z,62144.00
2019-04-30T08:27:16.841Z,61952.00
2019-04-30T08:29:21.019Z,64384.00
2019-04-30T08:30:26.455Z,65280.00
2019-04-30T08:32:25.470Z,64000.00
2019-04-30T08:33:25.716Z,63008.00
2019-04-30T08:35:29.915Z,60448.00
2019-04-30T08:36:32.958Z,63936.00
2019-04-30T08:38:34.341Z,63776.00
2019-04-30T08:39:34.593Z,65280.00
2019-04-30T08:41:29.280Z,67616.00
2019-04-30T08:42:31.711Z,67968.00
2019-04-30T08:44:32.143Z,60768.00
2019-04-30T08:45:34.788Z,62976.00
2019-04-30T08:47:36.589Z,70752.00
2019-04-30T08:48:49.961Z,67232.00
2019-04-30T08:50:41.116Z,71552.00
2019-04-30T08:51:41.634Z,70816.00
2019-04-30T08:53:45.465Z,73408.00
2019-04-30T08:54:45.715Z,73632.00
2019-04-30T08:56:50.374Z,72032.00
2019-04-30T08:57:50.229Z,74688.00
2019-04-30T08:59:54.344Z,79200.00
2019-04-30T09:00:54.597Z,77536.00
2019-04-30T09:02:59.343Z,74560.00
2019-04-30T09:03:59.699Z,79360.00
2019-04-30T09:06:03.242Z,77248.00
2019-04-30T09:07:03.493Z,78016.00
2019-04-30T09:09:10.681Z,81856.00
2019-04-30T09:10:09.261Z,81056.00
2019-04-30T09:12:01.049Z,73536.00
2019-04-30T09:13:01.299Z,79072.00
2019-04-30T09:15:05.477Z,79328.00
2019-04-30T09:16:05.725Z,78752.00
2019-04-30T09:18:12.540Z,79296.00
2019-04-30T09:19:10.181Z,79520.00
2019-04-30T09:21:14.384Z,79808.00
2019-04-30T09:22:15.306Z,76000.00
2019-04-30T09:24:19.177Z,74848.00
2019-04-30T09:25:19.553Z,78784.00
2019-04-30T09:27:23.266Z,79360.00
2019-04-30T09:28:23.512Z,82112.00
2019-04-30T09:30:29.806Z,87872.00
2019-04-30T09:31:29.666Z,86944.00
2019-04-30T09:33:32.146Z,85248.00
2019-04-30T09:34:32.396Z,86304.00
2019-04-30T09:36:36.589Z,84256.00
2019-04-30T09:37:36.845Z,80128.00
2019-04-30T09:39:41.034Z,84544.00
2019-04-30T09:40:41.739Z,83008.00
2019-04-30T09:42:45.486Z,80864.00
2019-04-30T09:43:45.741Z,80608.00
2019-04-30T09:45:49.914Z,84256.00
2019-04-30T09:46:50.166Z,87328.00
2019-04-30T09:48:54.368Z,89632.00
2019-04-30T09:49:54.618Z,89952.00
2019-04-30T09:51:49.603Z,92160.00
2019-04-30T09:52:49.684Z,87584.00
2019-04-30T09:54:52.432Z,94112.00
2019-04-30T09:55:52.434Z,90592.00
2019-04-30T09:57:58.735Z,91584.00
2019-04-30T09:58:56.887Z,96320.00
2019-04-30T10:01:01.077Z,90336.00
2019-04-30T10:02:01.327Z,83296.00
2019-04-30T10:04:06.358Z,91616.00
2019-04-30T10:05:06.792Z,100256.00
2019-04-30T10:07:10.485Z,82496.00
2019-04-30T10:08:10.727Z,85056.00
2019-04-30T10:10:14.909Z,99168.00
2019-04-30T10:11:15.161Z,93088.00
2019-04-30T10:13:19.453Z,87968.00
2019-04-30T10:14:19.709Z,91200.00
2019-04-30T10:16:23.871Z,90080.00
2019-04-30T10:17:24.125Z,90528.00
2019-04-30T10:19:29.258Z,86464.00
2019-04-30T10:20:28.579Z,89088.00
2019-04-30T10:22:32.786Z,100032.00
2019-04-30T10:23:33.031Z,93408.00
2019-04-30T10:25:37.204Z,95616.00
2019-04-30T10:26:37.459Z,98720.00
2019-04-30T10:28:41.666Z,94752.00
2019-04-30T10:29:41.917Z,97920.00
2019-04-30T10:31:36.064Z,98432.00
2019-04-30T10:32:36.315Z,95104.00
2019-04-30T10:34:40.501Z,92960.00
2019-04-30T10:35:40.758Z,93408.00
2019-04-30T10:37:44.969Z,100832.00
2019-04-30T10:38:45.222Z,100960.00
2019-04-30T10:40:49.430Z,92768.00
2019-04-30T10:41:49.671Z,97536.00
2019-04-30T10:43:53.875Z,94560.00
2019-04-30T10:44:54.129Z,92512.00
2019-04-30T10:46:59.465Z,99648.00
2019-04-30T10:47:59.606Z,102848.00
2019-04-30T10:50:03.784Z,105056.00
2019-04-30T10:51:04.037Z,106688.00
2019-04-30T10:53:09.147Z,108224.00
2019-04-30T10:54:08.898Z,102880.00
2019-04-30T10:56:12.809Z,104448.00
2019-04-30T10:57:12.936Z,107776.00
2019-04-30T10:59:17.150Z,102944.00
2019-04-30T11:00:18.630Z,103392.00
2019-04-30T11:02:21.620Z,105216.00
2019-04-30T11:03:23.084Z,102816.00
2019-04-30T11:05:26.055Z,104736.00
2019-04-30T11:06:26.312Z,110496.00
2019-04-30T11:08:30.525Z,101440.00
2019-04-30T11:09:30.996Z,103040.00
2019-04-30T11:11:24.393Z,104960.00
2019-04-30T11:12:24.647Z,100032.00
2019-04-30T11:14:28.858Z,103456.00
2019-04-30T11:15:29.324Z,103712.00
2019-04-30T11:17:33.449Z,96000.00
2019-04-30T11:18:33.732Z,97792.00
2019-04-30T11:20:39.721Z,106016.00
2019-04-30T11:21:38.713Z,105568.00
2019-04-30T11:23:42.878Z,93664.00
2019-04-30T11:24:56.647Z,94816.00
2019-04-30T11:26:49.538Z,104608.00
2019-04-30T11:27:50.154Z,106016.00
2019-04-30T11:29:51.808Z,114112.00
2019-04-30T11:30:51.994Z,111264.00
2019-04-30T11:32:56.259Z,106464.00
2019-04-30T11:33:56.339Z,108160.00
2019-04-30T11:36:02.985Z,109696.00
2019-04-30T11:37:00.773Z,110912.00
2019-04-30T11:39:04.978Z,108160.00
2019-04-30T11:40:05.233Z,105440.00
2019-04-30T11:41:58.346Z,110752.00
2019-04-30T11:42:58.600Z,110240.00
2019-04-30T11:45:02.804Z,109952.00
2019-04-30T11:46:03.056Z,104992.00
2019-04-30T11:48:08.984Z,99680.00
2019-04-30T11:49:09.563Z,100256.00
2019-04-30T11:51:11.737Z,102912.00
2019-04-30T11:52:11.989Z,105056.00
2019-04-30T11:54:16.200Z,100736.00
2019-04-30T11:55:16.453Z,102368.00
2019-04-30T11:57:20.637Z,107968.00
2019-04-30T11:58:21.998Z,106400.00
2019-04-30T12:00:25.093Z,107328.00
2019-04-30T12:01:25.349Z,106272.00
2019-04-30T12:03:30.398Z,102336.00
2019-04-30T12:04:30.014Z,102464.00
2019-04-30T12:06:33.982Z,105440.00
2019-04-30T12:07:34.238Z,101664.00
2019-04-30T12:09:38.629Z,96672.00
2019-04-30T12:10:39.202Z,99584.00
2019-04-30T12:12:42.881Z,100736.00
2019-04-30T12:13:43.137Z,98976.00
2019-04-30T12:15:50.022Z,100352.00
2019-04-30T12:16:47.617Z,101824.00
2019-04-30T12:18:51.824Z,99328.00
2019-04-30T12:19:52.077Z,100960.00
2019-04-30T12:21:45.193Z,102432.00
2019-04-30T12:22:45.452Z,97824.00
2019-04-30T12:25:02.056Z,99424.00
2019-04-30T12:25:49.917Z,99712.00
2019-04-30T12:27:55.113Z,100448.00
2019-04-30T12:28:55.366Z,100544.00
2019-04-30T12:30:59.574Z,94784.00
2019-04-30T12:31:59.829Z,98112.00
2019-04-30T12:34:04.037Z,104064.00
2019-04-30T12:35:04.292Z,99680.00
2019-04-30T12:37:10.632Z,91968.00
2019-04-30T12:38:08.893Z,94048.00
2019-04-30T12:40:25.784Z,100544.00
2019-04-30T12:41:13.238Z,97984.00
2019-04-30T12:43:17.424Z,92736.00
2019-04-30T12:44:17.675Z,96640.00
2019-04-30T12:46:21.896Z,97152.00
2019-04-30T12:47:22.148Z,93696.00
2019-04-30T12:49:26.359Z,93440.00
2019-04-30T12:50:26.614Z,94144.00
2019-04-30T12:52:30.796Z,87360.00
2019-04-30T12:53:31.052Z,90528.00
2019-04-30T12:55:35.262Z,97312.00
2019-04-30T12:56:35.518Z,90976.00
2019-04-30T12:58:39.701Z,89408.00
2019-04-30T12:59:39.954Z,92224.00
2019-04-30T13:01:34.207Z,98464.00
2019-04-30T13:02:33.337Z,93184.00
2019-04-30T13:04:39.407Z,91616.00
2019-04-30T13:05:39.599Z,92256.00
2019-04-30T13:07:42.452Z,91904.00
2019-04-30T13:08:42.705Z,92192.00
2019-04-30T13:10:46.949Z,87136.00
2019-04-30T13:11:47.288Z,86720.00
2019-04-30T13:13:51.303Z,91328.00
2019-04-30T13:14:54.552Z,87872.00
2019-04-30T13:16:55.341Z,91200.00
2019-04-30T13:17:55.613Z,97216.00
2019-04-30T13:19:59.821Z,91712.00
2019-04-30T13:21:00.187Z,89344.00
2019-04-30T13:23:04.258Z,92672.00
2019-04-30T13:24:04.512Z,94400.00
2019-04-30T13:26:09.021Z,90624.00
2019-04-30T13:27:09.491Z,83104.00
2019-04-30T13:29:13.154Z,91104.00
2019-04-30T13:30:13.407Z,92256.00
2019-04-30T13:32:08.532Z,88384.00
2019-04-30T13:33:06.811Z,48896.00
2019-04-30T13:35:12.021Z,84192.00
2019-04-30T13:36:12.274Z,85920.00
2019-04-30T13:38:16.454Z,85888.00
2019-04-30T13:39:16.704Z,87584.00
2019-04-30T13:41:20.911Z,76192.00
2019-04-30T13:42:21.169Z,74464.00
2019-04-30T13:44:25.348Z,80928.00
2019-04-30T13:45:25.601Z,76928.00
2019-04-30T13:47:29.805Z,80672.00
2019-04-30T13:48:30.073Z,78336.00
2019-04-30T13:50:35.303Z,75776.00
2019-04-30T13:51:35.553Z,79232.00
2019-04-30T13:53:39.805Z,69984.00
2019-04-30T13:54:40.064Z,70400.00
2019-04-30T13:56:44.408Z,71904.00
2019-04-30T13:57:44.829Z,70336.00
2019-04-30T13:59:50.827Z,72928.00
2019-04-30T14:00:49.522Z,67392.00
2019-04-30T14:02:53.558Z,70272.00
2019-04-30T14:03:53.918Z,65376.00
2019-04-30T14:05:59.400Z,67040.00
2019-04-30T14:06:58.648Z,65152.00
2019-04-30T14:09:02.839Z,70048.00
2019-04-30T14:10:03.092Z,63680.00
2019-04-30T14:11:56.225Z,46848.00
2019-04-30T14:12:56.480Z,60736.00
2019-04-30T14:15:00.656Z,57344.00
2019-04-30T14:16:00.915Z,43200.00
2019-04-30T14:18:05.117Z,22880.00
2019-04-30T14:19:05.366Z,20896.00
2019-04-30T14:21:09.564Z,20128.00
2019-04-30T14:22:09.822Z,19744.00
2019-04-30T14:24:13.998Z,19104.00
2019-04-30T14:25:14.252Z,18944.00
2019-04-30T14:27:18.453Z,18784.00
2019-04-30T14:28:19.119Z,18720.00
2019-04-30T14:30:22.886Z,18784.00
2019-04-30T14:31:23.138Z,18848.00
2019-04-30T14:33:29.237Z,18720.00
2019-04-30T14:34:28.579Z,18496.00
2019-04-30T14:36:31.794Z,17816.00
2019-04-30T14:37:32.044Z,17800.00
2019-04-30T14:39:36.391Z,17792.00
2019-04-30T14:40:36.990Z,17928.00
2019-04-30T14:42:41.043Z,17740.00
2019-04-30T14:43:42.706Z,17728.00
2019-04-30T14:45:45.566Z,17872.00
2019-04-30T14:46:45.430Z,17724.00
2019-04-30T14:48:50.977Z,17716.00
2019-04-30T14:50:01.249Z,17736.00
2019-04-30T14:51:42.941Z,17624.00
2019-04-30T14:52:43.191Z,17408.00
2019-04-30T14:54:50.168Z,16772.00
2019-04-30T14:55:49.435Z,16412.00
2019-04-30T14:57:51.825Z,16184.00
2019-04-30T14:58:52.071Z,16368.00
2019-04-30T15:00:56.246Z,16616.00
2019-04-30T15:01:56.496Z,16344.00
2019-04-30T15:04:00.700Z,16216.00
2019-04-30T15:05:00.951Z,15920.00
2019-04-30T15:07:06.163Z,15728.00
2019-04-30T15:08:08.485Z,15536.00
2019-04-30T15:10:10.591Z,14808.00
2019-04-30T15:11:10.841Z,14644.00
2019-04-30T15:13:15.046Z,14452.00
2019-04-30T15:14:15.296Z,14376.00
2019-04-30T15:16:19.478Z,14156.00
2019-04-30T15:17:19.731Z,14216.00
2019-04-30T15:19:23.931Z,14188.00
2019-04-30T15:20:24.179Z,13924.00
2019-04-30T15:22:29.056Z,13772.00
2019-04-30T15:23:28.628Z,13784.00
2019-04-30T15:25:34.515Z,13652.00
2019-04-30T15:26:33.064Z,13560.00
2019-04-30T15:28:39.286Z,13716.00
2019-04-30T15:29:39.192Z,13628.00
2019-04-30T15:31:30.630Z,13448.00
2019-04-30T15:32:30.885Z,13344.00
2019-04-30T15:34:35.062Z,13124.00
2019-04-30T15:35:35.311Z,13084.00
2019-04-30T15:37:39.510Z,13148.00
2019-04-30T15:38:39.762Z,13064.00
2019-04-30T15:40:43.937Z,12888.00
2019-04-30T15:41:44.190Z,12812.00
2019-04-30T15:43:48.391Z,12716.00
2019-04-30T15:44:49.693Z,12572.00
2019-04-30T15:46:52.846Z,12260.00
2019-04-30T15:47:53.096Z,12144.00
2019-04-30T15:49:57.272Z,12040.00
2019-04-30T15:50:59.029Z,11992.00
2019-04-30T15:53:01.718Z,11944.00
2019-04-30T15:54:01.972Z,11988.00
2019-04-30T15:56:06.146Z,12716.00
2019-04-30T15:57:06.398Z,14256.00
2019-04-30T15:59:11.606Z,18016.00
2019-04-30T16:00:11.855Z,18048.00
2019-04-30T16:02:05.000Z,17088.00
2019-04-30T16:03:05.236Z,16960.00
2019-04-30T16:05:09.408Z,16352.00
2019-04-30T16:06:10.468Z,15616.00
2019-04-30T16:08:13.854Z,15188.00
2019-04-30T16:09:14.105Z,14968.00
2019-04-30T16:11:19.452Z,14120.00
2019-04-30T16:12:20.210Z,13888.00
2019-04-30T16:14:22.724Z,13108.00
2019-04-30T16:15:22.976Z,12972.00
2019-04-30T16:17:29.177Z,12864.00
2019-04-30T16:18:30.184Z,12704.00
2019-04-30T16:20:32.593Z,12152.00
2019-04-30T16:21:32.844Z,11764.00
2019-04-30T16:23:38.630Z,11272.00
2019-04-30T16:24:38.662Z,11204.00
2019-04-30T16:26:49.490Z,10968.00
2019-04-30T16:27:41.712Z,10704.00
2019-04-30T16:29:46.919Z,10704.00
2019-04-30T16:30:47.453Z,10820.00
2019-04-30T16:32:51.367Z,9656.00
2019-04-30T16:33:51.617Z,9444.00
2019-04-30T16:35:55.789Z,9292.00
2019-04-30T16:36:56.041Z,9196.00
2019-04-30T16:39:00.242Z,8988.00
2019-04-30T16:40:00.488Z,8876.00
2019-04-30T16:41:53.594Z,8656.00
2019-04-30T16:42:53.845Z,8548.00
2019-04-30T16:45:00.541Z,8280.00
2019-04-30T16:45:58.882Z,8108.00
2019-04-30T16:48:02.492Z,6996.00
2019-04-30T16:49:02.742Z,7076.00
2019-04-30T16:51:09.110Z,6796.00
2019-04-30T16:52:09.193Z,6652.00
2019-04-30T16:54:11.362Z,6392.00
2019-04-30T16:55:11.611Z,6340.00
2019-04-30T16:57:15.783Z,6364.00
2019-04-30T16:58:16.044Z,6800.00
2019-04-30T17:00:20.274Z,7020.00
2019-04-30T17:01:20.474Z,6916.00
2019-04-30T17:03:25.718Z,6664.00
2019-04-30T17:04:25.973Z,6544.00
2019-04-30T17:06:30.144Z,6412.00
2019-04-30T17:07:30.442Z,6324.00
2019-04-30T17:09:34.638Z,5560.00
2019-04-30T17:10:34.889Z,5804.00
2019-04-30T17:12:39.064Z,5688.00
2019-04-30T17:13:39.296Z,5488.00
2019-04-30T17:15:43.484Z,5464.00
2019-04-30T17:16:43.840Z,5404.00
2019-04-30T17:18:49.987Z,5384.00
2019-04-30T17:19:49.204Z,5348.00
2019-04-30T17:21:41.370Z,5276.00
2019-04-30T17:22:41.619Z,5240.00
2019-04-30T17:24:45.823Z,5204.00
2019-04-30T17:25:46.062Z,4972.00
2019-04-30T17:27:50.230Z,4848.00
2019-04-30T17:28:50.499Z,4872.00
2019-04-30T17:30:54.666Z,4800.00
2019-04-30T17:31:54.905Z,4728.00
2019-04-30T17:33:59.595Z,4600.00
2019-04-30T17:34:59.834Z,4520.00
2019-04-30T17:37:04.047Z,4260.00
2019-04-30T17:38:04.247Z,4136.00
2019-04-30T17:40:09.394Z,3928.00
2019-04-30T17:41:09.168Z,3896.00
2019-04-30T17:43:14.346Z,3900.00
2019-04-30T17:44:14.595Z,3688.00
2019-04-30T17:46:20.225Z,3684.00
2019-04-30T17:47:19.030Z,3568.00
2019-04-30T17:49:23.215Z,3408.00
2019-04-30T17:50:23.467Z,3312.00
2019-04-30T17:52:29.677Z,3224.00
2019-04-30T17:53:28.766Z,3160.00
2019-04-30T17:55:32.079Z,3044.00
2019-04-30T17:56:32.307Z,2976.00
2019-04-30T17:58:36.962Z,2632.00
2019-04-30T17:59:37.204Z,2532.00
2019-04-30T18:01:30.835Z,2288.00
2019-04-30T18:02:31.081Z,2216.00
2019-04-30T18:04:35.263Z,2048.00
2019-04-30T18:05:35.514Z,1968.00
2019-04-30T18:07:39.675Z,1824.00
2019-04-30T18:08:39.918Z,1756.00
2019-04-30T18:10:44.137Z,1612.00
2019-04-30T18:11:44.343Z,1548.00
2019-04-30T18:13:50.596Z,1424.00
2019-04-30T18:14:49.517Z,1364.00
2019-04-30T18:16:52.940Z,1252.00
2019-04-30T18:17:53.227Z,1200.00
2019-04-30T18:19:57.933Z,1080.00
2019-04-30T18:20:59.369Z,1016.00
2019-04-30T18:23:02.261Z,912.00
2019-04-30T18:24:02.506Z,864.00
2019-04-30T18:26:06.692Z,776.00
2019-04-30T18:27:06.943Z,732.00
2019-04-30T18:29:11.104Z,644.00
2019-04-30T18:30:11.359Z,604.00
2019-04-30T18:32:04.470Z,528.00